createdAt,value
2023-02-28T00:01:10.906Z,99128.72
2023-02-28T00:03:18.178Z,99129.59
2023-02-28T00:05:24.617Z,99129.63
2023-02-28T00:07:29.408Z,99129.53
2023-02-28T00:09:34.463Z,99130.28
2023-02-28T00:11:39.301Z,99127.81
2023-02-28T00:13:47.642Z,99122.69
2023-02-28T00:16:02.665Z,99122.66
2023-02-28T00:18:07.531Z,99125.25
2023-02-28T00:20:15.170Z,99127.00
2023-02-28T00:22:20.645Z,99128.66
2023-02-28T00:24:25.455Z,99125.16
2023-02-28T00:26:30.422Z,99130.34
2023-02-28T00:28:35.826Z,99123.50
2023-02-28T00:30:42.440Z,99119.28
2023-02-28T00:32:49.905Z,99122.69
2023-02-28T00:34:54.809Z,99128.66
2023-02-28T00:36:59.827Z,99121.00
2023-02-28T00:39:04.641Z,99121.91
2023-02-28T00:41:09.481Z,99133.84
2023-02-28T00:43:14.346Z,99129.59
2023-02-28T00:45:19.263Z,99130.34
2023-02-28T00:47:24.157Z,99126.88
2023-02-28T00:49:31.766Z,99126.09
2023-02-28T00:51:36.563Z,99123.50
2023-02-28T00:53:41.377Z,99118.34
2023-02-28T00:55:46.268Z,99122.59
2023-02-28T00:57:51.017Z,99111.53
2023-02-28T00:59:56.155Z,99118.41
2023-02-28T01:02:00.686Z,99114.97
2023-02-28T01:04:05.845Z,99114.09
2023-02-28T01:06:13.544Z,99106.38
2023-02-28T01:08:19.182Z,99112.34
2023-02-28T01:10:24.210Z,99111.47
2023-02-28T01:12:30.846Z,99110.50
2023-02-28T01:14:36.061Z,99111.41
2023-02-28T01:16:40.883Z,99102.84
2023-02-28T01:18:46.284Z,99101.16
2023-02-28T01:20:52.852Z,99107.09
2023-02-28T01:23:00.230Z,99098.69
2023-02-28T01:25:06.070Z,99102.94
2023-02-28T01:27:10.939Z,99100.47
2023-02-28T01:29:18.086Z,99106.41
2023-02-28T01:31:25.062Z,99097.97
2023-02-28T01:33:29.967Z,99097.94
2023-02-28T01:35:36.472Z,99101.41
2023-02-28T01:37:41.483Z,99097.97
2023-02-28T01:39:48.853Z,99106.47
2023-02-28T01:41:53.981Z,99089.41
2023-02-28T01:44:04.327Z,99093.59
2023-02-28T01:46:09.247Z,99093.63
2023-02-28T01:48:16.836Z,99089.38
2023-02-28T01:50:25.224Z,99084.28
2023-02-28T01:52:31.589Z,99091.03
2023-02-28T01:54:38.543Z,99090.22
2023-02-28T01:56:49.797Z,99090.22
2023-02-28T01:58:55.949Z,99091.03
2023-02-28T02:01:04.063Z,99086.72
2023-02-28T02:03:12.456Z,99085.81
2023-02-28T02:05:19.578Z,99090.09
2023-02-28T02:07:25.886Z,99089.22
2023-02-28T02:09:30.692Z,99092.72
2023-02-28T02:11:39.582Z,99082.50
2023-02-28T02:14:04.812Z,99086.78
2023-02-28T02:16:22.112Z,99089.22
2023-02-28T02:18:37.699Z,99087.56
2023-02-28T02:20:52.453Z,99084.13
2023-02-28T02:23:24.461Z,99078.03
2023-02-28T02:25:36.495Z,99079.72
2023-02-28T02:27:58.475Z,99075.50
2023-02-28T02:30:35.253Z,99068.63
2023-02-28T02:33:00.636Z,99067.72
2023-02-28T02:35:16.559Z,99069.44
2023-02-28T02:37:34.280Z,99064.25
2023-02-28T02:39:47.609Z,99068.47
2023-02-28T02:41:56.271Z,99069.31
2023-02-28T02:44:07.175Z,99071.94
2023-02-28T02:46:18.006Z,99062.63
2023-02-28T02:48:28.937Z,99060.88
2023-02-28T02:50:44.312Z,99064.31
2023-02-28T02:52:55.049Z,99069.44
2023-02-28T02:55:03.986Z,99071.13
2023-02-28T02:57:12.365Z,99071.97
2023-02-28T02:59:22.589Z,99068.53
2023-02-28T03:01:31.404Z,99067.66
2023-02-28T03:03:38.059Z,99074.47
2023-02-28T03:05:50.061Z,99070.28
2023-02-28T03:07:54.910Z,99073.63
2023-02-28T03:10:02.370Z,99076.97
2023-02-28T03:12:10.320Z,99071.88
2023-02-28T03:14:33.854Z,99079.53
2023-02-28T03:16:49.258Z,99069.31
2023-02-28T03:19:05.169Z,99069.25
2023-02-28T03:21:25.476Z,99075.19
2023-02-28T03:23:40.359Z,99074.38
2023-02-28T03:25:57.083Z,99078.56
2023-02-28T03:28:09.739Z,99074.31
2023-02-28T03:30:26.782Z,99084.53
2023-02-28T03:32:39.831Z,99077.78
2023-02-28T03:34:50.216Z,99077.78
2023-02-28T03:37:03.112Z,99088.00
2023-02-28T03:39:12.161Z,99084.59
2023-02-28T03:41:21.448Z,99077.72
2023-02-28T03:43:31.423Z,99081.97
2023-02-28T03:45:39.775Z,99085.25
2023-02-28T03:47:48.955Z,99080.22
2023-02-28T03:49:58.674Z,99089.63
2023-02-28T03:52:10.245Z,99085.44
2023-02-28T03:54:20.292Z,99088.78
2023-02-28T03:56:30.341Z,99088.75
2023-02-28T03:58:41.394Z,99091.28
2023-02-28T04:00:50.610Z,99087.88
2023-02-28T04:02:55.575Z,99088.72
2023-02-28T04:05:00.708Z,99093.69
2023-02-28T04:07:09.129Z,99090.31
2023-02-28T04:09:16.497Z,99089.53
2023-02-28T04:11:25.962Z,99097.25
2023-02-28T04:13:30.766Z,99088.66
2023-02-28T04:15:37.885Z,99085.31
2023-02-28T04:17:42.818Z,99092.19
2023-02-28T04:19:47.820Z,99093.91
2023-02-28T04:21:54.963Z,99096.47
2023-02-28T04:24:02.440Z,99090.56
2023-02-28T04:26:08.043Z,99097.47
2023-02-28T04:28:13.538Z,99094.00
2023-02-28T04:30:19.124Z,99094.91
2023-02-28T04:32:23.974Z,99093.16
2023-02-28T04:34:29.918Z,99086.44
2023-02-28T04:36:35.228Z,99089.00
2023-02-28T04:38:41.844Z,99089.84
2023-02-28T04:40:49.238Z,99101.78
2023-02-28T04:42:54.079Z,99095.84
2023-02-28T04:44:58.950Z,99095.88
2023-02-28T04:47:03.917Z,99097.56
2023-02-28T04:49:09.064Z,99087.34
2023-02-28T04:51:19.096Z,99100.88
2023-02-28T04:53:24.597Z,99095.75
2023-02-28T04:55:29.403Z,99091.41
2023-02-28T04:57:36.812Z,99091.41
2023-02-28T04:59:41.692Z,99088.00
2023-02-28T05:01:50.359Z,99094.88
2023-02-28T05:03:56.831Z,99089.69
2023-02-28T05:06:01.650Z,99089.69
2023-02-28T05:08:06.620Z,99092.25
2023-02-28T05:10:12.106Z,99092.25
2023-02-28T05:12:17.035Z,99100.78
2023-02-28T05:14:24.628Z,99094.81
2023-02-28T05:16:29.658Z,99101.66
2023-02-28T05:18:34.509Z,99093.16
2023-02-28T05:20:39.424Z,99103.31
2023-02-28T05:22:44.821Z,99108.53
2023-02-28T05:24:49.729Z,99106.03
2023-02-28T05:26:55.933Z,99104.22
2023-02-28T05:29:01.180Z,99104.28
2023-02-28T05:31:08.844Z,99102.50
2023-02-28T05:33:15.113Z,99110.19
2023-02-28T05:35:20.107Z,99114.53
2023-02-28T05:37:24.942Z,99115.41
2023-02-28T05:39:29.841Z,99108.59
2023-02-28T05:41:34.707Z,99115.41
2023-02-28T05:43:40.808Z,99106.19
2023-02-28T05:45:45.667Z,99109.63
2023-02-28T05:47:53.088Z,99113.84
2023-02-28T05:49:57.859Z,99108.69
2023-02-28T05:52:02.649Z,99108.69
2023-02-28T05:54:07.837Z,99108.69
2023-02-28T05:56:12.708Z,99107.00
2023-02-28T05:58:17.623Z,99105.97
2023-02-28T06:00:23.165Z,99104.19
2023-02-28T06:02:27.972Z,99110.19
2023-02-28T06:04:35.606Z,99118.81
2023-02-28T06:06:40.706Z,99124.72
2023-02-28T06:08:45.819Z,99124.72
2023-02-28T06:10:50.742Z,99123.00
2023-02-28T06:12:55.637Z,99132.41
2023-02-28T06:15:00.408Z,99128.91
2023-02-28T06:17:06.630Z,99124.66
2023-02-28T06:19:12.596Z,99126.41
2023-02-28T06:21:20.037Z,99122.16
2023-02-28T06:23:24.945Z,99119.59
2023-02-28T06:25:30.558Z,99125.66
2023-02-28T06:27:38.494Z,99118.03
2023-02-28T06:29:43.776Z,99121.47
2023-02-28T06:31:49.177Z,99140.22
2023-02-28T06:33:54.015Z,99140.25
2023-02-28T06:35:58.857Z,99140.25
2023-02-28T06:38:06.219Z,99136.91
2023-02-28T06:40:14.298Z,99138.59
2023-02-28T06:42:19.281Z,99138.63
2023-02-28T06:44:27.327Z,99133.59
2023-02-28T06:46:32.092Z,99140.38
2023-02-28T06:48:37.635Z,99148.16
2023-02-28T06:50:42.400Z,99141.34
2023-02-28T06:52:47.239Z,99147.41
2023-02-28T06:55:00.895Z,99143.09
2023-02-28T06:57:05.819Z,99143.09
2023-02-28T06:59:10.681Z,99147.47
2023-02-28T07:01:17.487Z,99149.16
2023-02-28T07:03:27.872Z,99149.16
2023-02-28T07:05:32.867Z,99150.91
2023-02-28T07:07:39.687Z,99160.25
2023-02-28T07:09:44.474Z,99155.97
2023-02-28T07:11:51.806Z,99150.97
2023-02-28T07:13:57.484Z,99161.34
2023-02-28T07:16:04.425Z,99159.69
2023-02-28T07:18:09.277Z,99153.84
2023-02-28T07:20:16.935Z,99163.22
2023-02-28T07:22:21.724Z,99158.16
2023-02-28T07:24:29.378Z,99159.97
2023-02-28T07:26:35.226Z,99163.53
2023-02-28T07:28:43.317Z,99160.78
2023-02-28T07:30:49.293Z,99159.25
2023-02-28T07:32:55.799Z,99156.69
2023-02-28T07:35:00.599Z,99155.94
2023-02-28T07:37:06.539Z,99158.47
2023-02-28T07:39:11.424Z,99152.63
2023-02-28T07:41:16.252Z,99157.03
2023-02-28T07:43:21.230Z,99154.59
2023-02-28T07:45:29.839Z,99159.88
2023-02-28T07:47:35.309Z,99153.16
2023-02-28T07:49:40.575Z,99155.84
2023-02-28T07:51:45.435Z,99160.31
2023-02-28T07:53:50.246Z,99156.16
2023-02-28T07:55:56.668Z,99152.00
2023-02-28T07:58:02.075Z,99154.56
2023-02-28T08:00:06.824Z,99153.66
2023-02-28T08:02:21.128Z,99160.53
2023-02-28T08:04:25.972Z,99152.06
2023-02-28T08:06:30.786Z,99158.09
2023-02-28T08:08:39.086Z,99153.91
2023-02-28T08:10:43.937Z,99160.84
2023-02-28T08:12:48.729Z,99161.84
2023-02-28T08:14:53.485Z,99152.47
2023-02-28T08:16:58.282Z,99163.66
2023-02-28T08:19:05.696Z,99154.31
2023-02-28T08:21:11.317Z,99147.34
2023-02-28T08:23:16.122Z,99144.03
2023-02-28T08:25:21.216Z,99154.19
2023-02-28T08:27:25.917Z,99152.53
2023-02-28T08:29:31.472Z,99153.53
2023-02-28T08:31:37.001Z,99156.97
2023-02-28T08:33:42.794Z,99153.59
2023-02-28T08:35:50.200Z,99153.69
2023-02-28T08:37:55.127Z,99147.72
2023-02-28T08:39:59.919Z,99140.84
2023-02-28T08:42:08.283Z,99142.63
2023-02-28T08:44:13.090Z,99145.22
2023-02-28T08:46:18.533Z,99147.81
2023-02-28T08:48:23.357Z,99148.78
2023-02-28T08:50:28.316Z,99150.59
2023-02-28T08:52:39.535Z,99142.91
2023-02-28T08:54:44.592Z,99147.25
2023-02-28T08:56:49.813Z,99150.78
2023-02-28T08:58:56.337Z,99146.50
2023-02-28T09:01:01.271Z,99143.91
2023-02-28T09:03:06.237Z,99143.94
2023-02-28T09:05:12.547Z,99148.22
2023-02-28T09:07:17.378Z,99142.28
2023-02-28T09:09:24.907Z,99151.78
2023-02-28T09:11:29.968Z,99149.19
2023-02-28T09:13:38.009Z,99144.13
2023-02-28T09:15:42.997Z,99146.75
2023-02-28T09:17:48.676Z,99140.84
2023-02-28T09:19:53.624Z,99134.94
2023-02-28T09:21:58.554Z,99143.53
2023-02-28T09:24:03.410Z,99139.28
2023-02-28T09:26:11.250Z,99138.53
2023-02-28T09:28:16.823Z,99143.69
2023-02-28T09:30:22.170Z,99143.75
2023-02-28T09:32:27.139Z,99140.47
2023-02-28T09:34:33.271Z,99142.25
2023-02-28T09:36:45.689Z,99131.16
2023-02-28T09:38:52.506Z,99135.47
2023-02-28T09:40:59.858Z,99133.81
2023-02-28T09:43:08.651Z,99132.97
2023-02-28T09:45:25.192Z,99138.97
2023-02-28T09:47:34.826Z,99144.13
2023-02-28T09:49:44.746Z,99133.81
2023-02-28T09:51:54.299Z,99143.28
2023-02-28T09:54:02.012Z,99141.56
2023-02-28T09:56:11.522Z,99146.72
2023-02-28T09:58:27.117Z,99137.28
2023-02-28T10:00:36.314Z,99137.25
2023-02-28T10:03:07.184Z,99135.53
2023-02-28T10:05:16.298Z,99139.81
2023-02-28T10:07:34.275Z,99142.38
2023-02-28T10:09:39.911Z,99139.81
2023-02-28T10:14:03.535Z,99142.34
2023-02-28T10:16:12.561Z,99134.63
2023-02-28T10:18:23.891Z,99139.78
2023-02-28T10:20:32.681Z,99138.06
2023-02-28T10:22:45.010Z,99138.09
2023-02-28T10:24:52.600Z,99142.38
2023-02-28T10:27:04.274Z,99127.81
2023-02-28T10:29:12.383Z,99147.50
2023-02-28T10:31:21.413Z,99144.91
2023-02-28T10:33:32.844Z,99136.38
2023-02-28T10:35:37.670Z,99133.78
2023-02-28T10:37:43.487Z,99132.06
2023-02-28T10:39:50.546Z,99132.09
2023-02-28T10:41:56.424Z,99126.13
2023-02-28T10:44:24.480Z,99120.97
2023-02-28T10:46:30.090Z,99124.38
2023-02-28T10:48:37.967Z,99123.53
2023-02-28T10:50:48.005Z,99132.97
2023-02-28T10:52:52.947Z,99131.28
2023-02-28T10:55:21.396Z,99123.56
2023-02-28T10:57:29.586Z,99130.41
2023-02-28T10:59:37.427Z,99121.84
2023-02-28T11:01:44.521Z,99120.13
2023-02-28T11:03:49.475Z,99119.25
2023-02-28T11:05:54.519Z,99126.13
2023-02-28T11:08:01.144Z,99127.84
2023-02-28T11:10:07.665Z,99120.09
2023-02-28T11:12:25.051Z,99112.38
2023-02-28T11:14:32.196Z,99123.53
2023-02-28T11:16:41.833Z,99121.78
2023-02-28T11:18:52.015Z,99120.91
2023-02-28T11:20:59.815Z,99120.06
2023-02-28T11:23:07.361Z,99119.16
2023-02-28T11:25:23.593Z,99115.72
2023-02-28T11:27:52.609Z,99114.00
2023-02-28T11:29:57.474Z,99120.88
2023-02-28T11:32:16.733Z,99117.44
2023-02-28T11:34:29.618Z,99120.81
2023-02-28T11:36:36.256Z,99107.88
2023-02-28T11:38:41.822Z,99108.69
2023-02-28T11:40:53.182Z,99109.53
2023-02-28T11:43:10.471Z,99112.88
2023-02-28T11:45:42.127Z,99113.75
2023-02-28T11:47:57.842Z,99104.28
2023-02-28T11:50:20.231Z,99102.53
2023-02-28T11:52:44.226Z,99098.25
2023-02-28T11:55:07.599Z,99094.84
2023-02-28T11:57:27.437Z,99100.91
2023-02-28T11:59:48.700Z,99095.78
2023-02-28T12:02:10.456Z,99100.06
2023-02-28T12:04:29.423Z,99100.06
2023-02-28T12:06:41.869Z,99097.53
2023-02-28T12:08:57.473Z,99100.06
2023-02-28T12:11:14.570Z,99098.38
2023-02-28T12:13:26.389Z,99103.47
2023-02-28T12:15:47.405Z,99099.97
2023-02-28T12:18:04.939Z,99100.84
2023-02-28T12:20:21.837Z,99097.41
2023-02-28T12:22:32.934Z,99093.09
2023-02-28T12:24:58.649Z,99094.84
2023-02-28T12:27:06.985Z,99095.75
2023-02-28T12:29:20.577Z,99087.09
2023-02-28T12:31:28.821Z,99085.41
2023-02-28T12:33:38.484Z,99083.63
2023-02-28T12:35:53.510Z,99084.44
2023-02-28T12:38:05.082Z,99083.53
2023-02-28T12:40:14.968Z,99069.69
2023-02-28T12:42:29.489Z,99075.75
2023-02-28T12:44:39.657Z,99079.19
2023-02-28T12:46:49.944Z,99075.72
2023-02-28T12:48:59.327Z,99069.69
2023-02-28T12:51:09.415Z,99062.81
2023-02-28T12:53:22.438Z,99064.53
2023-02-28T12:55:35.971Z,99065.38
2023-02-28T12:57:46.256Z,99074.81
2023-02-28T12:59:57.045Z,99066.22
2023-02-28T13:02:22.577Z,99073.94
2023-02-28T13:05:00.188Z,99073.13
2023-02-28T13:07:27.248Z,99067.03
2023-02-28T13:09:35.048Z,99070.53
2023-02-28T13:11:44.219Z,99063.63
2023-02-28T13:13:49.558Z,99069.59
2023-02-28T13:16:07.100Z,99060.16
2023-02-28T13:18:35.070Z,99065.31
2023-02-28T13:20:52.329Z,99062.78
2023-02-28T13:23:02.295Z,99060.22
2023-02-28T13:25:45.376Z,99066.19
2023-02-28T13:27:55.459Z,99072.19
2023-02-28T13:30:00.255Z,99067.88
2023-02-28T13:32:23.933Z,99067.84
2023-02-28T13:34:28.723Z,99061.00
2023-02-28T13:36:35.936Z,99058.44
2023-02-28T13:38:48.964Z,99062.72
2023-02-28T13:40:54.072Z,99062.78
2023-02-28T13:42:58.888Z,99062.81
2023-02-28T13:45:26.150Z,99063.72
2023-02-28T13:47:36.379Z,99061.13
2023-02-28T13:49:42.165Z,99066.22
2023-02-28T13:51:49.761Z,99059.28
2023-02-28T13:54:06.883Z,99052.44
2023-02-28T13:56:25.614Z,99048.97
2023-02-28T13:58:42.924Z,99046.34
2023-02-28T14:01:07.168Z,99054.94
2023-02-28T14:03:27.855Z,99050.66
2023-02-28T14:05:36.224Z,99052.38
2023-02-28T14:07:48.056Z,99060.13
2023-02-28T14:10:06.342Z,99053.19
2023-02-28T14:12:44.051Z,99051.47
2023-02-28T14:14:59.687Z,99046.31
2023-02-28T14:17:06.713Z,99054.03
2023-02-28T14:19:17.315Z,99043.69
2023-02-28T14:21:29.858Z,99042.91
2023-02-28T14:24:00.868Z,99040.34
2023-02-28T14:26:23.227Z,99040.25
2023-02-28T14:28:44.442Z,99042.00
2023-02-28T14:31:13.630Z,99037.69
2023-02-28T14:33:29.219Z,99034.25
2023-02-28T14:35:49.833Z,99034.22
2023-02-28T14:37:55.315Z,99037.69
2023-02-28T14:40:01.590Z,99042.84
2023-02-28T14:42:33.447Z,99045.41
2023-02-28T14:44:40.456Z,99048.06
2023-02-28T14:46:46.881Z,99049.81
2023-02-28T14:48:53.340Z,99048.16
2023-02-28T14:51:00.388Z,99050.72
2023-02-28T14:53:05.989Z,99046.44
2023-02-28T14:55:18.826Z,99053.28
2023-02-28T14:57:29.090Z,99040.38
2023-02-28T14:59:38.007Z,99036.97
2023-02-28T15:01:42.879Z,99037.78
2023-02-28T15:03:48.403Z,99036.06
2023-02-28T15:05:58.185Z,99029.16
2023-02-28T15:08:09.233Z,99033.53
2023-02-28T15:10:19.352Z,99034.44
2023-02-28T15:14:31.630Z,99036.19
2023-02-28T15:16:42.543Z,99036.13
2023-02-28T15:18:54.846Z,99024.06
2023-02-28T15:21:02.774Z,99028.38
2023-02-28T15:23:07.628Z,99032.72
2023-02-28T15:25:17.240Z,99036.25
2023-02-28T15:27:26.118Z,99032.81
2023-02-28T15:29:32.923Z,99044.03
2023-02-28T15:31:57.073Z,99044.91
2023-02-28T15:34:09.361Z,99041.41
2023-02-28T15:36:18.617Z,99050.94
2023-02-28T15:38:28.823Z,99047.47
2023-02-28T15:40:36.265Z,99055.28
2023-02-28T15:42:41.091Z,99048.41
2023-02-28T15:44:45.994Z,99048.41
2023-02-28T15:47:03.743Z,99047.56
2023-02-28T15:49:08.642Z,99049.34
2023-02-28T15:51:23.984Z,99048.44
2023-02-28T15:53:35.568Z,99051.91
2023-02-28T15:55:40.949Z,99049.31
2023-02-28T15:57:47.250Z,99051.91
2023-02-28T15:59:58.241Z,99051.94
2023-02-28T16:02:35.588Z,99057.97
2023-02-28T16:04:41.454Z,99048.56
2023-02-28T16:06:47.768Z,99047.72
2023-02-28T16:08:54.179Z,99052.88
2023-02-28T16:10:58.960Z,99054.63
2023-02-28T16:13:07.621Z,99057.19
2023-02-28T16:15:24.223Z,99053.75
2023-02-28T16:17:34.850Z,99052.06
2023-02-28T16:19:41.895Z,99063.28
2023-02-28T16:21:46.834Z,99059.84
2023-02-28T16:23:52.083Z,99063.25
2023-02-28T16:25:56.772Z,99062.41
2023-02-28T16:28:03.717Z,99066.72
2023-02-28T16:30:10.911Z,99062.44
2023-02-28T16:32:17.887Z,99071.94
2023-02-28T16:34:26.732Z,99070.19
2023-02-28T16:36:33.196Z,99071.06
2023-02-28T16:38:38.318Z,99072.78
2023-02-28T16:40:42.982Z,99073.66
2023-02-28T16:42:49.517Z,99072.78
2023-02-28T16:44:56.408Z,99083.97
2023-02-28T16:47:03.152Z,99083.13
2023-02-28T16:49:09.450Z,99083.09
2023-02-28T16:51:22.637Z,99077.97
2023-02-28T16:53:29.416Z,99087.44
2023-02-28T16:55:34.306Z,99090.00
2023-02-28T16:57:39.465Z,99097.75
2023-02-28T16:59:44.366Z,99103.75
2023-02-28T17:01:50.799Z,99102.91
2023-02-28T17:03:55.903Z,99108.06
2023-02-28T17:06:00.850Z,99108.91
2023-02-28T17:08:08.296Z,99113.25
2023-02-28T17:10:18.802Z,99120.09
2023-02-28T17:12:25.011Z,99122.66
2023-02-28T17:14:30.978Z,99122.69
2023-02-28T17:16:54.999Z,99125.28
2023-02-28T17:19:02.881Z,99127.00
2023-02-28T17:21:13.434Z,99130.41
2023-02-28T17:23:20.960Z,99130.41
2023-02-28T17:25:28.104Z,99133.00
2023-02-28T17:27:33.012Z,99132.97
2023-02-28T17:29:38.240Z,99139.84
2023-02-28T17:31:42.721Z,99145.00
2023-02-28T17:33:47.921Z,99145.00
2023-02-28T17:35:52.789Z,99151.88
2023-02-28T17:37:57.691Z,99152.72
2023-02-28T17:40:05.722Z,99155.28
2023-02-28T17:42:10.676Z,99147.56
2023-02-28T17:44:18.184Z,99151.84
2023-02-28T17:46:24.639Z,99150.13
2023-02-28T17:48:31.416Z,99161.28
2023-02-28T17:50:36.882Z,99159.56
2023-02-28T17:52:41.665Z,99156.97
2023-02-28T17:54:46.842Z,99156.16
2023-02-28T17:56:54.074Z,99163.84
2023-02-28T17:59:00.100Z,99166.41
2023-02-28T18:01:04.887Z,99154.41
2023-02-28T18:03:10.713Z,99157.84
2023-02-28T18:05:15.971Z,99161.25
2023-02-28T18:07:21.224Z,99168.97
2023-02-28T18:09:26.846Z,99172.38
2023-02-28T18:11:43.642Z,99177.53
2023-02-28T18:13:54.063Z,99171.53
2023-02-28T18:15:59.003Z,99181.81
2023-02-28T18:18:03.791Z,99179.25
2023-02-28T18:20:10.486Z,99181.81
2023-02-28T18:22:17.303Z,99174.94
2023-02-28T18:24:24.730Z,99178.38
2023-02-28T18:26:30.251Z,99178.38
2023-02-28T18:28:36.619Z,99175.78
2023-02-28T18:30:43.999Z,99174.09
2023-02-28T18:32:48.804Z,99178.34
2023-02-28T18:34:53.702Z,99177.47
2023-02-28T18:36:58.488Z,99173.19
2023-02-28T18:39:07.352Z,99171.47
2023-02-28T18:41:12.891Z,99171.47
2023-02-28T18:43:17.920Z,99163.72
2023-02-28T18:45:25.205Z,99165.47
2023-02-28T18:47:35.082Z,99168.88
2023-02-28T18:49:40.077Z,99168.00
2023-02-28T18:51:46.743Z,99156.00
2023-02-28T18:53:52.113Z,99165.41
2023-02-28T18:55:56.624Z,99161.97
2023-02-28T18:58:01.459Z,99167.09
2023-02-28T19:00:08.985Z,99167.09
2023-02-28T19:02:14.698Z,99161.06
2023-02-28T19:04:22.182Z,99165.34
2023-02-28T19:06:27.145Z,99162.72
2023-02-28T19:08:31.998Z,99169.53
2023-02-28T19:10:41.476Z,99166.06
2023-02-28T19:12:47.181Z,99160.06
2023-02-28T19:14:52.011Z,99166.91
2023-02-28T19:16:56.929Z,99160.06
2023-02-28T19:19:02.006Z,99166.88
2023-02-28T19:21:10.361Z,99164.25
2023-02-28T19:23:15.935Z,99165.91
2023-02-28T19:25:21.070Z,99165.94
2023-02-28T19:27:25.924Z,99167.63
2023-02-28T19:29:30.694Z,99165.06
2023-02-28T19:31:37.358Z,99167.63
2023-02-28T19:33:42.245Z,99171.88
2023-02-28T19:35:47.102Z,99161.59
2023-02-28T19:37:55.108Z,99169.25
2023-02-28T19:39:59.935Z,99165.84
2023-02-28T19:42:04.727Z,99165.81
2023-02-28T19:44:09.591Z,99168.38
2023-02-28T19:46:17.113Z,99170.97
2023-02-28T19:48:25.209Z,99176.94
2023-02-28T19:50:30.455Z,99170.03
2023-02-28T19:52:35.062Z,99169.97
2023-02-28T19:54:42.416Z,99170.81
2023-02-28T19:56:47.263Z,99169.06
2023-02-28T19:58:52.050Z,99170.81
2023-02-28T20:00:57.136Z,99169.06
2023-02-28T20:03:01.774Z,99167.38
2023-02-28T20:05:07.179Z,99165.63
2023-02-28T20:07:12.086Z,99159.63
2023-02-28T20:09:17.036Z,99161.38
2023-02-28T20:11:25.426Z,99161.38
2023-02-28T20:13:30.873Z,99161.41
2023-02-28T20:15:38.657Z,99160.53
2023-02-28T20:17:46.315Z,99167.34
2023-02-28T20:19:51.194Z,99163.94
2023-02-28T20:21:56.126Z,99165.66
2023-02-28T20:24:00.983Z,99160.50
2023-02-28T20:26:05.970Z,99161.31
2023-02-28T20:28:13.475Z,99156.16
2023-02-28T20:30:22.891Z,99162.13
2023-02-28T20:32:28.951Z,99157.00
2023-02-28T20:34:34.090Z,99151.88
2023-02-28T20:36:38.996Z,99145.88
2023-02-28T20:38:44.198Z,99164.66
2023-02-28T20:40:48.808Z,99154.41
2023-02-28T20:42:53.734Z,99165.53
2023-02-28T20:45:01.169Z,99159.56
2023-02-28T20:47:06.503Z,99161.31
2023-02-28T20:49:11.524Z,99156.16
2023-02-28T20:51:16.718Z,99163.00
2023-02-28T20:53:21.507Z,99156.13
2023-02-28T20:55:26.343Z,99154.44
2023-02-28T20:57:32.154Z,99156.16
2023-02-28T20:59:38.881Z,99163.03
2023-02-28T21:01:46.440Z,99149.38
2023-02-28T21:03:53.355Z,99158.75
2023-02-28T21:06:04.460Z,99153.66
2023-02-28T21:08:09.447Z,99156.16
2023-02-28T21:10:15.025Z,99160.41
2023-02-28T21:12:19.816Z,99154.38
2023-02-28T21:14:25.553Z,99152.66
2023-02-28T21:16:31.860Z,99156.94
2023-02-28T21:18:40.417Z,99155.22
2023-02-28T21:20:45.370Z,99157.72
2023-02-28T21:22:50.146Z,99157.66
2023-02-28T21:24:54.958Z,99154.22
2023-02-28T21:27:01.242Z,99156.81
2023-02-28T21:29:06.547Z,99155.06
2023-02-28T21:31:11.803Z,99160.25
2023-02-28T21:33:17.516Z,99164.44
2023-02-28T21:35:24.948Z,99160.09
2023-02-28T21:37:30.555Z,99160.13
2023-02-28T21:39:39.075Z,99161.00
2023-02-28T21:41:44.456Z,99163.56
2023-02-28T21:43:50.535Z,99167.75
2023-02-28T21:45:57.812Z,99178.84
2023-02-28T21:48:02.632Z,99171.19
2023-02-28T21:50:08.201Z,99173.72
2023-02-28T21:52:21.940Z,99170.19
2023-02-28T21:54:27.433Z,99171.81
2023-02-28T21:56:37.527Z,99172.69
2023-02-28T21:58:42.360Z,99170.00
2023-02-28T22:00:47.245Z,99170.00
2023-02-28T22:02:52.091Z,99161.38
2023-02-28T22:05:02.013Z,99159.69
2023-02-28T22:07:07.737Z,99176.81
2023-02-28T22:09:15.086Z,99168.31
2023-02-28T22:11:20.711Z,99170.84
2023-02-28T22:13:25.511Z,99172.59
2023-02-28T22:15:30.332Z,99173.44
2023-02-28T22:17:35.452Z,99164.94
2023-02-28T22:19:40.112Z,99163.91
2023-02-28T22:21:45.775Z,99165.63
2023-02-28T22:23:50.708Z,99163.91
2023-02-28T22:25:58.143Z,99161.34
2023-02-28T22:28:02.976Z,99166.50
2023-02-28T22:30:09.051Z,99169.88
2023-02-28T22:32:15.679Z,99167.28
2023-02-28T22:34:20.527Z,99172.44
2023-02-28T22:36:25.791Z,99170.75
2023-02-28T22:38:35.325Z,99177.56
2023-02-28T22:40:40.348Z,99171.59
2023-02-28T22:42:47.730Z,99173.34
2023-02-28T22:44:53.247Z,99169.84
2023-02-28T22:46:58.077Z,99163.88
2023-02-28T22:49:03.633Z,99162.16
2023-02-28T22:51:12.666Z,99162.19
2023-02-28T22:53:17.676Z,99163.00
2023-02-28T22:55:22.597Z,99158.75
2023-02-28T22:57:27.603Z,99158.75
2023-02-28T22:59:34.936Z,99161.31
2023-02-28T23:01:40.866Z,99155.28
2023-02-28T23:03:47.142Z,99161.31
2023-02-28T23:05:51.985Z,99157.06
2023-02-28T23:07:56.778Z,99161.34
2023-02-28T23:10:01.720Z,99159.59
2023-02-28T23:12:06.743Z,99166.41
2023-02-28T23:14:13.062Z,99158.63
2023-02-28T23:16:20.469Z,99163.81
2023-02-28T23:18:25.360Z,99163.81
2023-02-28T23:20:30.378Z,99166.38
2023-02-28T23:22:35.409Z,99165.47
2023-02-28T23:24:40.762Z,99167.22
2023-02-28T23:26:49.026Z,99163.84
2023-02-28T23:28:53.833Z,99162.09
2023-02-28T23:30:58.674Z,99175.75
2023-02-28T23:33:06.010Z,99172.31
2023-02-28T23:35:13.079Z,99179.16
2023-02-28T23:37:17.908Z,99173.09
2023-02-28T23:39:24.104Z,99178.16
2023-02-28T23:41:30.760Z,99180.47
2023-02-28T23:43:36.781Z,99182.97
2023-02-28T23:45:46.664Z,99174.38
2023-02-28T23:47:51.617Z,99178.66
2023-02-28T23:49:58.977Z,99177.81
2023-02-28T23:52:03.773Z,99178.66
2023-02-28T23:54:10.061Z,99172.72
2023-02-28T23:56:17.750Z,99177.06
2023-02-28T23:58:22.514Z,99171.94
